Time;durP1;ratioP1;P1;durP2;ratioP2;P2;SDS_P1;SDS_P2;PMS_P1;PMS_P2;Temp;Humidity;BMP_temperature;BMP_pressure;BME280_temperature;BME280_humidity;BME280_pressure;Samples;Min_cycle;Max_cycle;Signal;HPM_P1;HPM_P2
2023/01/15 00:01:22;;;;;;;8.77;1.90;;;6.40;99.90;;;;;;5031021;28;20046;-41
2023/01/15 00:03:48;;;;;;;;;;;6.40;99.90;;;;;;5015802;28;20449;-42
2023/01/15 00:06:15;;;;;;;7.45;1.70;;;6.40;99.90;;;;;;5014152;28;20336;-41
2023/01/15 00:08:41;;;;;;;6.45;1.55;;;6.40;99.90;;;;;;5033527;28;20041;-40
2023/01/15 00:11:07;;;;;;;6.32;2.03;;;6.40;99.90;;;;;;5019988;28;20030;-41
2023/01/15 00:13:33;;;;;;;8.50;2.38;;;6.40;99.90;;;;;;5017343;28;20042;-41
2023/01/15 00:16:08;;;;;;;8.27;2.08;;;6.40;99.90;;;;;;5029592;28;20088;-41
2023/01/15 00:18:34;;;;;;;10.88;2.28;;;6.40;99.90;;;;;;5031259;28;20056;-41
2023/01/15 00:21:06;;;;;;;8.73;1.80;;;6.40;99.90;;;;;;5025917;28;20045;-41
2023/01/15 00:29:05;;;;;;;7.40;2.30;;;6.40;99.90;;;;;;5032009;28;20537;-41
2023/01/15 00:31:32;;;;;;;5.97;2.63;;;6.30;99.90;;;;;;5025282;28;20048;-44
2023/01/15 00:33:57;;;;;;;7.60;3.00;;;6.40;99.90;;;;;;5031927;28;20049;-41
2023/01/15 00:36:24;;;;;;;9.93;2.55;;;6.40;99.90;;;;;;5023836;28;20048;-41
2023/01/15 00:38:50;;;;;;;7.10;2.08;;;6.40;99.90;;;;;;5020678;28;20041;-41
2023/01/15 00:41:16;;;;;;;11.02;2.45;;;6.40;99.90;;;;;;5027192;28;20029;-41
2023/01/15 00:43:42;;;;;;;9.82;2.42;;;6.40;99.90;;;;;;5042821;28;20029;-42
2023/01/15 00:46:08;;;;;;;11.80;2.33;;;6.40;99.90;;;;;;5016343;28;20041;-41
2023/01/15 00:48:34;;;;;;;9.52;2.20;;;6.40;99.90;;;;;;5020619;28;20072;-41
2023/01/15 00:51:01;;;;;;;9.43;2.15;;;6.40;99.90;;;;;;5020612;28;20615;-40
2023/01/15 00:53:26;;;;;;;9.18;2.40;;;6.40;99.90;;;;;;5015208;28;20036;-40
2023/01/15 00:55:52;;;;;;;8.07;2.47;;;6.40;99.90;;;;;;5020039;28;20033;-41
2023/01/15 00:58:18;;;;;;;8.25;2.05;;;6.40;99.90;;;;;;5024343;28;20137;-41
2023/01/15 01:00:44;;;;;;;11.23;2.40;;;6.40;99.90;;;;;;5044199;28;20120;-40
2023/01/15 01:03:10;;;;;;;6.60;1.95;;;6.40;99.90;;;;;;5026017;28;20076;-41
2023/01/15 01:05:36;;;;;;;16.23;2.28;;;6.40;99.90;;;;;;5027164;28;20079;-41
2023/01/15 01:08:01;;;;;;;8.90;2.30;;;6.40;99.90;;;;;;5026146;28;20055;-41
2023/01/15 01:10:27;;;;;;;6.25;2.13;;;6.30;99.90;;;;;;5022144;28;20036;-41
2023/01/15 01:12:54;;;;;;;8.63;2.35;;;6.40;99.90;;;;;;5016382;28;20449;-41
2023/01/15 01:15:21;;;;;;;10.68;2.50;;;6.30;99.90;;;;;;5035548;28;20044;-41
2023/01/15 01:17:48;;;;;;;9.27;2.50;;;6.30;99.90;;;;;;5024976;28;20037;-41
2023/01/15 01:20:16;;;;;;;10.48;2.50;;;6.30;99.90;;;;;;5050318;28;20041;-41
2023/01/15 01:22:42;;;;;;;9.98;2.50;;;6.30;99.90;;;;;;5025111;28;20044;-41
2023/01/15 01:25:09;;;;;;;7.43;2.20;;;6.30;99.90;;;;;;5042707;28;20116;-42
2023/01/15 01:27:35;;;;;;;8.85;2.92;;;6.30;99.90;;;;;;5018957;28;20441;-41
2023/01/15 01:30:01;;;;;;;7.45;2.25;;;6.30;99.90;;;;;;5042765;28;20051;-42
2023/01/15 01:32:27;;;;;;;9.52;2.60;;;6.20;99.90;;;;;;5011154;28;20046;-40
2023/01/15 01:34:52;;;;;;;7.22;2.05;;;6.20;99.90;;;;;;5019376;28;20541;-41
2023/01/15 01:37:18;;;;;;;16.08;2.60;;;6.20;99.90;;;;;;5030715;28;20127;-41
2023/01/15 01:39:44;;;;;;;11.55;2.33;;;6.20;99.90;;;;;;5028371;28;20493;-41
2023/01/15 01:42:15;;;;;;;9.73;2.30;;;6.20;99.90;;;;;;5036257;28;20474;-42
2023/01/15 01:44:44;;;;;;;6.22;2.50;;;6.20;99.90;;;;;;5028170;28;20034;-41
2023/01/15 01:47:17;;;;;;;8.27;2.20;;;6.20;99.90;;;;;;5027622;28;20061;-41
2023/01/15 01:49:46;;;;;;;7.55;2.25;;;6.20;99.90;;;;;;5029473;28;20053;-41
2023/01/15 01:52:17;;;;;;;11.15;2.70;;;6.10;99.90;;;;;;5030442;28;20037;-41
2023/01/15 01:54:46;;;;;;;12.55;2.30;;;6.20;99.90;;;;;;5048057;28;20966;-41
2023/01/15 01:57:13;;;;;;;8.57;2.05;;;6.20;99.90;;;;;;5045149;28;20052;-41
2023/01/15 01:59:39;;;;;;;7.68;2.85;;;6.20;99.90;;;;;;5039230;28;20045;-41
2023/01/15 02:02:05;;;;;;;7.60;2.30;;;6.20;99.90;;;;;;5040508;28;20108;-41
2023/01/15 02:04:32;;;;;;;9.77;3.72;;;6.20;99.90;;;;;;5012837;28;20046;-41
2023/01/15 02:06:59;;;;;;;7.45;1.77;;;6.20;99.90;;;;;;5023236;28;20033;-41
2023/01/15 02:09:25;;;;;;;14.52;3.88;;;6.20;99.90;;;;;;5022827;28;20478;-41
2023/01/15 02:11:55;;;;;;;11.85;4.15;;;6.20;99.90;;;;;;5033303;28;20041;-41
2023/01/15 02:14:29;;;;;;;16.30;4.47;;;6.20;99.90;;;;;;5022744;28;20040;-40
2023/01/15 02:16:58;;;;;;;15.93;2.83;;;6.20;99.90;;;;;;5026931;28;20037;-40
2023/01/15 02:20:15;;;;;;;9.80;2.15;;;6.20;99.90;;;;;;5046119;28;20037;-40
2023/01/15 02:23:00;;;;;;;9.60;2.17;;;6.10;99.90;;;;;;5038390;28;20037;-41
2023/01/15 02:26:03;;;;;;;12.27;3.17;;;6.10;99.90;;;;;;5027904;28;20498;-40
2023/01/15 02:28:43;;;;;;;13.35;3.72;;;6.10;99.90;;;;;;5013782;28;20064;-39
2023/01/15 02:31:36;;;;;;;9.65;2.63;;;6.10;99.90;;;;;;5021506;28;20084;-40
2023/01/15 02:34:33;;;;;;;9.52;2.88;;;6.10;99.90;;;;;;5048645;28;20076;-39
2023/01/15 02:37:08;;;;;;;11.98;2.47;;;6.10;99.90;;;;;;5027944;28;20100;-40
2023/01/15 02:39:39;;;;;;;7.35;2.38;;;6.10;99.90;;;;;;5024413;28;20409;-42
2023/01/15 02:42:08;;;;;;;9.95;1.90;;;6.10;99.90;;;;;;5043678;28;20041;-40
2023/01/15 02:44:39;;;;;;;10.73;1.80;;;6.10;99.90;;;;;;5024888;28;20470;-41
2023/01/15 02:47:06;;;;;;;9.02;2.30;;;6.10;99.90;;;;;;5042482;28;20411;-40
2023/01/15 02:49:33;;;;;;;10.35;2.00;;;6.10;99.90;;;;;;5035701;28;20041;-40
2023/01/15 02:52:03;;;;;;;6.70;2.13;;;6.10;99.90;;;;;;5018375;28;20037;-40
2023/01/15 02:54:36;;;;;;;12.35;3.25;;;6.10;99.90;;;;;;5031407;28;20029;-41
2023/01/15 02:57:03;;;;;;;9.50;2.58;;;6.10;99.90;;;;;;5016572;28;20136;-40
2023/01/15 02:59:41;;;;;;;7.00;2.20;;;6.10;99.90;;;;;;5020671;28;20037;-41
2023/01/15 03:02:13;;;;;;;10.40;1.92;;;6.10;99.90;;;;;;5023680;28;20036;-41
2023/01/15 03:05:26;;;;;;;15.15;2.63;;;6.10;99.90;;;;;;5023764;28;20614;-40
2023/01/15 03:07:59;;;;;;;10.55;2.92;;;6.10;99.90;;;;;;5018135;28;20103;-45
2023/01/15 03:10:43;;;;;;;8.20;2.75;;;6.00;99.90;;;;;;5014938;28;20432;-41
2023/01/15 03:13:15;;;;;;;9.60;2.67;;;6.00;99.90;;;;;;5040858;28;20487;-41
2023/01/15 03:18:46;;;;;;;9.90;2.20;;;6.00;99.90;;;;;;5036635;28;20429;-41
2023/01/15 03:21:17;;;;;;;11.55;2.97;;;6.00;99.90;;;;;;5022795;28;20095;-41
2023/01/15 03:23:48;;;;;;;9.98;2.85;;;5.90;99.90;;;;;;5025577;28;20041;-41
2023/01/15 03:26:14;;;;;;;7.07;2.28;;;6.00;99.90;;;;;;5029534;28;20048;-41
2023/01/15 03:28:41;;;;;;;7.78;2.17;;;6.00;99.90;;;;;;5043003;28;20394;-42
2023/01/15 03:31:07;;;;;;;14.70;2.75;;;5.90;99.90;;;;;;5006779;28;20045;-41
2023/01/15 03:33:34;;;;;;;10.27;2.40;;;5.90;99.90;;;;;;5026853;28;20034;-42
2023/01/15 03:36:01;;;;;;;11.85;2.30;;;5.90;99.90;;;;;;5021521;28;20486;-41
2023/01/15 03:38:34;;;;;;;12.57;2.95;;;5.80;99.90;;;;;;5023189;28;20037;-42
2023/01/15 03:41:15;;;;;;;8.82;2.03;;;5.80;99.90;;;;;;5029677;28;20051;-40
2023/01/15 03:43:53;;;;;;;8.18;2.08;;;5.90;99.90;;;;;;5007604;28;20049;-41
2023/01/15 03:46:37;;;;;;;8.00;2.40;;;5.90;99.90;;;;;;5019574;28;20583;-41
2023/01/15 03:49:09;;;;;;;9.65;2.78;;;5.90;99.90;;;;;;5021969;28;20052;-40
2023/01/15 03:51:47;;;;;;;13.98;2.78;;;5.90;99.90;;;;;;5043744;28;20037;-41
2023/01/15 03:54:36;;;;;;;11.82;2.45;;;5.90;99.90;;;;;;5027496;28;20272;-41
2023/01/15 03:57:20;;;;;;;10.18;2.63;;;5.90;99.90;;;;;;5030714;28;20087;-40
2023/01/15 03:59:58;;;;;;;14.55;2.60;;;5.90;99.90;;;;;;5018517;28;20076;-43
2023/01/15 04:02:29;;;;;;;8.50;2.03;;;5.90;99.90;;;;;;5030316;28;20477;-45
2023/01/15 04:04:56;;;;;;;9.20;2.20;;;5.80;99.90;;;;;;5004618;28;20049;-42
2023/01/15 04:07:24;;;;;;;9.68;2.33;;;5.80;99.90;;;;;;5024728;28;20102;-44
2023/01/15 04:09:50;;;;;;;8.27;2.15;;;5.80;99.90;;;;;;5015339;28;20033;-43
2023/01/15 04:12:16;;;;;;;7.40;2.03;;;5.80;99.90;;;;;;5013626;28;20548;-41
2023/01/15 04:14:42;;;;;;;10.52;2.42;;;5.80;99.90;;;;;;5029167;28;20033;-43
2023/01/15 04:17:08;;;;;;;10.52;2.70;;;5.80;99.90;;;;;;5029734;28;20033;-43
2023/01/15 04:19:33;;;;;;;14.13;2.33;;;5.80;99.90;;;;;;5040128;28;20041;-43
2023/01/15 04:21:59;;;;;;;8.98;1.95;;;5.80;99.90;;;;;;5034579;28;20041;-43
2023/01/15 04:24:25;;;;;;;12.35;2.42;;;5.80;99.90;;;;;;5006863;28;20095;-43
2023/01/15 04:26:51;;;;;;;14.45;2.55;;;5.80;99.90;;;;;;5024372;28;20398;-43
2023/01/15 04:29:17;;;;;;;11.02;2.42;;;5.80;99.90;;;;;;5046975;28;20444;-43
2023/01/15 04:31:42;;;;;;;8.52;2.40;;;5.80;99.90;;;;;;5026509;28;20040;-42
2023/01/15 04:34:08;;;;;;;11.82;2.10;;;5.80;99.90;;;;;;5036160;28;20037;-43
2023/01/15 04:36:34;;;;;;;9.77;2.10;;;5.90;99.90;;;;;;5016633;28;20060;-43
2023/01/15 04:39:01;;;;;;;9.40;2.45;;;5.90;99.90;;;;;;5017958;28;20052;-43
2023/01/15 04:44:11;;;;;;;10.07;2.58;;;5.90;99.90;;;;;;5047372;28;20041;-42
2023/01/15 04:46:40;;;;;;;6.38;1.92;;;5.90;99.90;;;;;;5033300;28;20073;-43
2023/01/15 04:49:09;;;;;;;17.33;3.22;;;5.90;99.90;;;;;;5024752;28;20559;-42
2023/01/15 04:51:35;;;;;;;9.88;2.15;;;5.90;99.90;;;;;;4990814;28;20044;-43
2023/01/15 04:54:03;;;;;;;8.73;2.45;;;5.80;99.90;;;;;;5041139;28;20038;-42
2023/01/15 04:56:29;;;;;;;8.70;2.15;;;5.90;99.90;;;;;;5040349;28;20038;-43
2023/01/15 04:58:54;;;;;;;14.65;2.92;;;5.80;99.90;;;;;;5026427;28;20402;-40
2023/01/15 05:01:20;;;;;;;7.30;1.92;;;5.80;99.90;;;;;;5047115;28;20038;-40
2023/01/15 05:03:46;;;;;;;11.13;2.20;;;5.80;99.90;;;;;;5021275;28;20566;-40
2023/01/15 05:06:13;;;;;;;11.85;2.30;;;5.80;99.90;;;;;;5044467;28;20502;-42
2023/01/15 05:08:39;;;;;;;8.40;1.95;;;5.80;99.90;;;;;;5032924;28;20506;-41
2023/01/15 05:11:06;;;;;;;13.55;2.22;;;5.80;99.90;;;;;;5047533;28;20045;-41
2023/01/15 05:13:33;;;;;;;12.07;2.55;;;5.80;99.90;;;;;;5048279;28;20035;-41
2023/01/15 05:16:23;;;;;;;10.00;2.15;;;5.80;99.90;;;;;;5040970;28;20033;-41
2023/01/15 05:18:50;;;;;;;9.57;2.55;;;5.70;99.90;;;;;;5031922;28;20513;-42
2023/01/15 05:21:30;;;;;;;14.52;2.13;;;5.70;99.90;;;;;;5040617;28;20044;-42
2023/01/15 05:23:57;;;;;;;9.82;1.63;;;5.70;99.90;;;;;;5010099;28;20098;-41
2023/01/15 05:26:24;;;;;;;10.98;2.45;;;5.70;99.90;;;;;;5031439;28;20567;-42
2023/01/15 05:28:56;;;;;;;10.80;2.20;;;5.70;99.90;;;;;;5041510;28;20505;-42
2023/01/15 05:31:22;;;;;;;9.77;3.03;;;5.60;99.90;;;;;;5031834;28;20037;-42
2023/01/15 05:33:48;;;;;;;9.40;2.50;;;5.60;99.90;;;;;;5030855;28;20080;-42
2023/01/15 05:36:27;;;;;;;10.50;2.10;;;5.50;99.90;;;;;;5037313;28;20041;-42
2023/01/15 05:38:56;;;;;;;11.60;1.90;;;5.60;99.90;;;;;;5000936;28;20034;-42
2023/01/15 05:44:09;;;;;;;;;;;5.60;99.90;;;;;;5042570;28;20084;-38
2023/01/15 05:46:39;;;;;;;10.90;2.58;;;5.60;99.90;;;;;;5023176;28;20011;-39
2023/01/15 05:49:10;;;;;;;9.18;2.03;;;5.60;99.90;;;;;;5026872;28;20433;-43
2023/01/15 05:51:36;;;;;;;5.15;1.75;;;5.60;99.90;;;;;;5028885;28;20119;-42
2023/01/15 05:54:04;;;;;;;6.68;1.85;;;5.60;99.90;;;;;;5027953;28;20033;-41
2023/01/15 05:56:30;;;;;;;5.38;1.40;;;5.60;99.90;;;;;;5014366;28;20034;-43
2023/01/15 05:58:56;;;;;;;5.22;1.60;;;5.60;99.90;;;;;;5036490;28;20043;-42
2023/01/15 06:01:22;;;;;;;7.40;1.42;;;5.60;99.90;;;;;;5033678;28;20032;-44
2023/01/15 06:03:48;;;;;;;6.05;1.98;;;5.60;99.90;;;;;;5033497;28;20041;-42
2023/01/15 06:06:16;;;;;;;6.43;1.52;;;5.50;99.90;;;;;;5025953;28;20045;-41
2023/01/15 06:08:42;;;;;;;5.28;1.40;;;5.50;99.90;;;;;;5021553;28;20402;-42
2023/01/15 06:11:09;;;;;;;5.13;1.85;;;5.40;99.90;;;;;;5046105;28;20045;-44
2023/01/15 06:13:38;;;;;;;9.80;3.33;;;5.40;99.90;;;;;;5023967;28;20037;-42
2023/01/15 06:16:05;;;;;;;16.90;5.68;;;5.30;99.90;;;;;;5045796;28;20048;-42
2023/01/15 06:18:32;;;;;;;25.73;8.63;;;5.20;99.90;;;;;;5039764;28;20048;-42
2023/01/15 06:21:03;;;;;;;23.75;8.57;;;5.20;99.90;;;;;;5022851;28;20037;-39
2023/01/15 06:23:31;;;;;;;6.35;2.00;;;5.20;99.90;;;;;;5036097;28;20033;-39
2023/01/15 06:26:00;;;;;;;10.65;3.42;;;5.20;99.90;;;;;;5019444;28;20121;-39
2023/01/15 06:28:26;;;;;;;8.65;3.63;;;5.10;99.90;;;;;;5027208;28;20071;-39
2023/01/15 06:30:53;;;;;;;12.13;2.50;;;5.20;99.90;;;;;;5036451;28;20030;-39
2023/01/15 06:33:19;;;;;;;10.40;2.53;;;5.20;99.90;;;;;;5040078;28;20068;-40
2023/01/15 06:35:44;;;;;;;10.27;2.92;;;5.30;99.90;;;;;;5036483;28;20026;-39
2023/01/15 06:38:10;;;;;;;10.68;2.47;;;5.30;99.90;;;;;;5031367;28;20041;-39
2023/01/15 06:40:36;;;;;;;7.63;2.95;;;5.30;99.90;;;;;;5037023;28;20033;-39
2023/01/15 06:48:32;;;;;;;7.30;2.80;;;5.20;99.90;;;;;;5031089;28;20508;-40
2023/01/15 06:50:58;;;;;;;8.80;2.45;;;5.30;99.90;;;;;;5033222;28;20521;-42
2023/01/15 06:53:24;;;;;;;10.52;2.25;;;5.30;99.90;;;;;;5014196;28;20041;-43
2023/01/15 06:55:50;;;;;;;10.77;2.83;;;5.20;99.90;;;;;;5033706;28;20045;-43
2023/01/15 06:58:16;;;;;;;12.13;2.38;;;5.20;99.90;;;;;;5033315;28;20076;-45
2023/01/15 07:00:43;;;;;;;9.95;2.03;;;5.20;99.90;;;;;;5008059;28;20033;-43
2023/01/15 07:03:11;;;;;;;7.28;2.15;;;5.20;99.90;;;;;;5015242;28;20071;-44
2023/01/15 07:05:38;;;;;;;11.77;2.40;;;5.10;99.90;;;;;;5017638;28;20132;-43
2023/01/15 07:08:05;;;;;;;13.10;2.72;;;5.10;99.90;;;;;;5033319;28;20073;-43
2023/01/15 07:10:32;;;;;;;9.30;2.35;;;5.00;99.90;;;;;;5034695;28;20044;-42
2023/01/15 07:12:58;;;;;;;8.65;2.40;;;5.10;99.90;;;;;;5032047;28;20037;-44
2023/01/15 07:15:23;;;;;;;10.70;1.98;;;5.00;99.90;;;;;;5039619;28;20033;-41
2023/01/15 07:17:53;;;;;;;9.88;2.50;;;5.00;99.90;;;;;;5020974;28;20052;-42
2023/01/15 07:20:20;;;;;;;10.70;2.65;;;5.00;99.90;;;;;;5024075;28;20069;-42
2023/01/15 07:22:55;;;;;;;8.80;1.80;;;4.90;99.90;;;;;;5013230;28;20041;-44
2023/01/15 07:25:21;;;;;;;9.13;2.30;;;4.90;99.90;;;;;;5030677;28;20112;-41
2023/01/15 07:27:47;;;;;;;7.70;2.13;;;4.80;99.90;;;;;;5029514;28;20431;-42
2023/01/15 07:30:13;;;;;;;10.02;2.10;;;4.80;99.90;;;;;;5033825;28;20029;-42
2023/01/15 07:32:39;;;;;;;9.50;2.08;;;4.80;99.90;;;;;;5035715;28;20033;-42
2023/01/15 07:35:05;;;;;;;6.57;1.77;;;4.70;99.90;;;;;;5022892;28;20033;-41
2023/01/15 07:37:31;;;;;;;9.35;2.20;;;4.80;99.90;;;;;;5020149;28;20132;-43
2023/01/15 07:39:57;;;;;;;10.60;2.63;;;4.70;99.90;;;;;;5015315;28;20120;-42
2023/01/15 07:50:39;;;;;;;9.85;2.20;;;4.80;99.90;;;;;;5039129;28;20084;-43
2023/01/15 07:53:05;;;;;;;10.25;2.15;;;4.80;99.90;;;;;;5017467;28;20487;-43
2023/01/15 07:55:30;;;;;;;9.95;2.30;;;4.80;99.90;;;;;;5023345;28;20108;-45
2023/01/15 07:57:57;;;;;;;9.23;2.05;;;4.80;99.90;;;;;;5040396;28;20049;-42
2023/01/15 08:00:24;;;;;;;3.97;1.88;;;4.80;99.90;;;;;;5022103;28;20030;-42
2023/01/15 08:02:51;;;;;;;10.15;2.10;;;4.80;99.90;;;;;;5028288;28;20044;-42
2023/01/15 08:05:17;;;;;;;6.57;1.85;;;4.80;99.90;;;;;;5010363;28;20039;-43
2023/01/15 08:07:44;;;;;;;6.70;2.20;;;4.90;99.90;;;;;;5032996;28;20250;-42
2023/01/15 08:10:12;;;;;;;12.10;2.47;;;4.80;99.90;;;;;;5048373;28;20037;-43
2023/01/15 08:15:23;;;;;;;11.80;2.65;;;4.90;99.90;;;;;;5034992;28;20037;-44
2023/01/15 08:17:50;;;;;;;7.63;2.03;;;4.90;99.90;;;;;;5020480;28;20041;-43
2023/01/15 08:20:21;;;;;;;7.05;1.92;;;4.90;99.90;;;;;;5031626;28;20110;-43
2023/01/15 08:22:48;;;;;;;5.18;1.95;;;4.90;99.90;;;;;;5015329;28;20029;-43
2023/01/15 08:25:16;;;;;;;5.05;1.58;;;4.90;99.90;;;;;;5027689;28;20048;-43
2023/01/15 08:27:42;;;;;;;7.47;2.05;;;4.90;99.90;;;;;;5029334;28;20490;-43
2023/01/15 08:30:11;;;;;;;9.20;2.17;;;4.90;99.90;;;;;;5033616;28;20068;-42
2023/01/15 08:32:37;;;;;;;8.85;1.90;;;4.90;99.90;;;;;;5040392;28;20040;-41
2023/01/15 08:35:03;;;;;;;7.10;1.85;;;4.90;99.90;;;;;;5039750;28;20033;-44
2023/01/15 08:37:29;;;;;;;9.73;2.35;;;4.90;99.90;;;;;;5026755;28;20030;-41
2023/01/15 08:39:55;;;;;;;6.40;1.85;;;5.00;99.90;;;;;;5025135;28;20123;-42
2023/01/15 08:42:21;;;;;;;8.07;1.88;;;4.90;99.90;;;;;;5048495;28;20560;-43
2023/01/15 08:44:47;;;;;;;10.68;2.60;;;5.00;99.90;;;;;;5037492;28;20045;-41
2023/01/15 08:47:14;;;;;;;8.77;2.63;;;5.00;99.90;;;;;;5028509;28;20129;-43
2023/01/15 08:49:40;;;;;;;9.48;3.28;;;5.00;99.90;;;;;;5033316;28;20033;-42
2023/01/15 08:52:06;;;;;;;12.55;3.58;;;5.10;99.90;;;;;;5025326;28;20034;-42
2023/01/15 08:54:33;;;;;;;9.80;4.00;;;5.20;99.90;;;;;;5030160;28;20314;-45
2023/01/15 08:56:59;;;;;;;9.07;2.20;;;5.40;99.90;;;;;;5041497;28;20038;-42
2023/01/15 08:59:25;;;;;;;14.00;2.80;;;5.50;99.90;;;;;;5017860;28;20037;-41
2023/01/15 09:01:51;;;;;;;10.55;3.38;;;5.50;99.90;;;;;;5040946;28;20048;-42
2023/01/15 09:04:19;;;;;;;7.85;1.92;;;5.50;99.90;;;;;;5021234;28;20033;-42
2023/01/15 09:06:48;;;;;;;5.63;2.03;;;5.40;99.90;;;;;;5037120;28;20033;-43
2023/01/15 09:09:17;;;;;;;8.98;3.33;;;5.30;99.90;;;;;;5024631;28;20045;-43
2023/01/15 09:11:43;;;;;;;5.35;1.88;;;5.10;99.90;;;;;;4997195;28;20033;-44
2023/01/15 09:14:12;;;;;;;5.05;1.63;;;4.90;99.90;;;;;;5023975;28;20391;-46
2023/01/15 09:16:39;;;;;;;9.77;2.03;;;4.80;99.90;;;;;;5022300;28;20067;-44
2023/01/15 09:19:08;;;;;;;8.38;1.90;;;4.70;99.90;;;;;;5007232;28;20075;-45
2023/01/15 09:21:34;;;;;;;6.35;2.25;;;4.50;99.90;;;;;;5017404;28;20037;-43
2023/01/15 09:24:01;;;;;;;4.78;1.05;;;4.40;99.90;;;;;;5034701;28;20450;-42
2023/01/15 09:26:31;;;;;;;9.40;1.40;;;4.20;99.90;;;;;;5037519;28;20033;-46
2023/01/15 09:28:59;;;;;;;8.52;2.00;;;4.00;99.90;;;;;;5036781;28;20041;-43
2023/01/15 09:31:26;;;;;;;4.88;1.58;;;3.80;99.90;;;;;;5020534;28;20139;-42
2023/01/15 09:33:53;;;;;;;5.85;1.85;;;3.70;99.90;;;;;;5038862;28;20402;-42
2023/01/15 09:36:23;;;;;;;9.27;2.78;;;3.70;99.90;;;;;;5005202;28;20048;-43
2023/01/15 09:38:50;;;;;;;5.35;1.90;;;3.80;99.90;;;;;;5013231;28;20510;-42
2023/01/15 09:44:24;;;;;;;10.20;3.58;;;3.80;99.90;;;;;;5031770;28;20037;-46
2023/01/15 09:46:58;;;;;;;7.68;2.05;;;3.80;99.90;;;;;;5039254;28;20052;-44
2023/01/15 09:49:47;;;;;;;10.40;4.60;;;3.80;99.90;;;;;;5028559;28;20394;-46
2023/01/15 09:52:25;;;;;;;9.45;4.25;;;3.90;99.90;;;;;;5018249;28;20050;-41
2023/01/15 09:55:13;;;;;;;7.95;2.75;;;4.00;99.90;;;;;;5003321;28;20034;-42
2023/01/15 09:57:41;;;;;;;5.70;2.67;;;4.10;99.90;;;;;;5023360;28;20037;-41
2023/01/15 10:00:23;;;;;;;10.18;2.90;;;4.20;99.90;;;;;;5009117;28;20041;-42
2023/01/15 10:03:13;;;;;;;5.72;2.22;;;4.30;99.90;;;;;;5025746;28;20037;-39
2023/01/15 10:05:45;;;;;;;3.97;1.80;;;4.40;99.90;;;;;;5025046;28;20030;-39
2023/01/15 10:08:14;;;;;;;3.50;1.40;;;4.40;99.90;;;;;;5041733;28;20133;-43
2023/01/15 10:10:49;;;;;;;4.15;1.50;;;4.40;99.90;;;;;;5019064;28;20034;-43
2023/01/15 10:13:30;;;;;;;5.82;1.80;;;4.40;99.90;;;;;;5016165;28;20560;-43
2023/01/15 10:15:57;;;;;;;6.75;1.98;;;4.40;99.90;;;;;;5026176;28;20406;-42
2023/01/15 10:18:25;;;;;;;8.63;3.63;;;4.30;99.90;;;;;;5028118;28;20157;-44
2023/01/15 10:20:52;;;;;;;9.52;2.20;;;4.30;99.90;;;;;;5030744;28;20046;-44
2023/01/15 10:23:34;;;;;;;6.65;2.05;;;4.40;99.90;;;;;;5010208;28;20043;-44
2023/01/15 10:26:15;;;;;;;6.57;2.60;;;4.40;99.90;;;;;;5017151;28;20033;-47
2023/01/15 10:28:53;;;;;;;8.82;2.13;;;4.50;99.90;;;;;;5002914;28;20073;-46
2023/01/15 10:31:24;;;;;;;5.13;1.92;;;4.60;99.90;;;;;;5032419;28;20037;-45
2023/01/15 10:34:17;;;;;;;8.80;2.50;;;4.60;99.90;;;;;;5033798;28;20037;-42
2023/01/15 10:37:22;;;;;;;4.65;2.05;;;4.70;99.90;;;;;;5031152;28;20037;-41
2023/01/15 10:40:13;;;;;;;8.55;2.67;;;4.70;99.90;;;;;;5009458;28;20042;-41
2023/01/15 10:42:57;;;;;;;9.00;1.90;;;4.80;99.90;;;;;;5012731;28;20075;-42
2023/01/15 10:45:39;;;;;;;9.50;2.75;;;4.80;99.90;;;;;;5026213;28;20045;-42
2023/01/15 10:48:15;;;;;;;8.07;3.70;;;4.90;99.90;;;;;;5033897;28;20502;-41
2023/01/15 10:50:41;;;;;;;9.23;3.67;;;4.90;99.90;;;;;;5026252;28;20433;-41
2023/01/15 10:53:25;;;;;;;11.23;4.00;;;5.00;99.90;;;;;;5025748;28;20087;-41
2023/01/15 10:55:56;;;;;;;10.10;2.85;;;5.00;99.90;;;;;;5012555;28;20050;-44
2023/01/15 10:58:54;;;;;;;11.18;3.72;;;5.00;99.90;;;;;;5019557;28;20033;-40
2023/01/15 11:01:24;;;;;;;12.70;3.45;;;5.30;99.90;;;;;;5030717;28;20041;-40
2023/01/15 11:03:50;;;;;;;11.75;2.72;;;5.40;99.90;;;;;;5033981;28;20140;-42
2023/01/15 11:06:20;;;;;;;13.77;4.03;;;5.50;99.90;;;;;;5029980;28;20049;-40
2023/01/15 11:08:52;;;;;;;7.95;1.98;;;5.50;99.90;;;;;;5015931;28;20045;-39
2023/01/15 11:20:35;;;;;;;8.05;2.15;;;5.60;99.90;;;;;;5041936;28;20044;-40
2023/01/15 11:23:17;;;;;;;7.45;1.80;;;5.40;99.90;;;;;;5021295;28;20053;-40
2023/01/15 11:25:58;;;;;;;11.18;2.35;;;5.40;99.90;;;;;;5034521;28;20037;-39
2023/01/15 11:28:39;;;;;;;9.30;1.65;;;5.40;99.90;;;;;;5030341;28;20080;-39
2023/01/15 11:31:10;;;;;;;6.30;2.53;;;5.40;99.90;;;;;;5017737;28;20052;-39
2023/01/15 11:33:36;;;;;;;9.48;2.55;;;5.40;99.90;;;;;;5014774;28;20089;-39
2023/01/15 11:36:18;;;;;;;7.55;2.50;;;5.50;99.90;;;;;;5041929;28;20040;-40
2023/01/15 11:38:48;;;;;;;8.88;2.35;;;5.60;99.90;;;;;;5017144;28;20041;-40
2023/01/15 11:52:43;;;;;;;7.40;2.58;;;6.00;99.90;;;;;;5036234;28;20037;-41
2023/01/15 11:55:12;;;;;;;5.47;2.00;;;6.20;99.90;;;;;;5029851;28;20179;-42
2023/01/15 11:57:39;;;;;;;10.38;3.40;;;6.80;99.90;;;;;;5035001;28;20032;-42
2023/01/15 12:00:06;;;;;;;13.88;3.45;;;7.40;99.90;;;;;;5044558;28;20052;-40
2023/01/15 12:02:44;;;;;;;8.48;2.72;;;7.40;99.90;;;;;;5012687;28;20028;-42
2023/01/15 12:05:23;;;;;;;8.07;2.83;;;7.70;99.90;;;;;;5024095;28;20038;-41
2023/01/15 12:07:52;;;;;;;7.18;2.95;;;7.90;99.90;;;;;;5020515;28;20045;-42
2023/01/15 12:13:16;;;;;;;12.52;3.05;;;7.80;99.90;;;;;;5039572;28;20045;-41
2023/01/15 12:16:08;;;;;;;8.63;2.75;;;7.80;99.90;;;;;;5019608;28;20034;-41
2023/01/15 12:18:43;;;;;;;7.00;2.45;;;7.60;99.90;;;;;;5019531;28;20049;-41
2023/01/15 12:21:45;;;;;;;10.73;3.08;;;7.30;99.90;;;;;;5024646;28;20105;-40
2023/01/15 12:24:14;;;;;;;11.25;3.20;;;7.10;99.90;;;;;;5010620;28;20121;-40
2023/01/15 12:27:05;;;;;;;9.25;3.67;;;7.00;99.90;;;;;;5017099;28;20053;-40
2023/01/15 12:30:03;;;;;;;9.00;3.78;;;7.00;99.90;;;;;;5009202;28;20069;-42
2023/01/15 12:32:36;;;;;;;10.57;3.50;;;6.90;99.90;;;;;;5021948;28;20048;-50
2023/01/15 12:35:12;;;;;;;8.80;2.50;;;6.80;99.90;;;;;;5047501;28;20567;-41
2023/01/15 12:37:45;;;;;;;10.45;3.38;;;6.70;99.90;;;;;;5031490;28;20120;-41
2023/01/15 12:40:14;;;;;;;10.68;2.70;;;6.70;99.90;;;;;;5024930;28;20041;-40
2023/01/15 12:45:31;;;;;;;8.07;3.30;;;6.80;99.90;;;;;;5029896;28;20048;-41
2023/01/15 12:48:15;;;;;;;11.40;3.17;;;6.80;99.90;;;;;;5034725;28;20038;-42
2023/01/15 12:50:46;;;;;;;8.82;2.53;;;6.70;99.90;;;;;;5030188;28;20426;-41
2023/01/15 12:53:20;;;;;;;5.95;2.80;;;6.60;99.90;;;;;;5012725;28;20529;-40
2023/01/15 12:56:04;;;;;;;10.98;4.75;;;6.40;99.90;;;;;;5013859;28;20033;-42
2023/01/15 12:58:41;;;;;;;10.55;3.72;;;6.30;99.90;;;;;;5016277;28;20060;-42
2023/01/15 13:01:30;;;;;;;7.95;3.05;;;6.20;99.90;;;;;;5015192;28;20044;-41
2023/01/15 13:04:08;;;;;;;8.00;2.78;;;6.20;99.90;;;;;;5031094;28;20080;-41
2023/01/15 13:06:37;;;;;;;6.90;2.10;;;6.10;99.90;;;;;;5025024;28;20072;-42
2023/01/15 13:09:23;;;;;;;9.23;2.85;;;6.10;99.90;;;;;;5006987;28;20099;-42
2023/01/15 13:11:49;;;;;;;8.85;3.20;;;6.00;99.90;;;;;;5003703;28;20065;-39
2023/01/15 13:14:17;;;;;;;13.60;3.22;;;5.90;99.90;;;;;;5008656;28;20037;-40
2023/01/15 13:17:07;;;;;;;10.18;2.42;;;5.80;99.90;;;;;;5022098;28;20034;-42
2023/01/15 13:19:43;;;;;;;10.80;3.10;;;5.80;99.90;;;;;;5002876;28;20049;-40
2023/01/15 13:22:23;;;;;;;8.95;2.42;;;5.70;99.90;;;;;;5010184;28;20406;-42
2023/01/15 13:25:26;;;;;;;9.65;3.17;;;5.60;99.90;;;;;;5027362;28;20041;-41
2023/01/15 13:27:52;;;;;;;10.95;3.08;;;5.40;99.90;;;;;;5026643;28;20046;-41
2023/01/15 13:30:40;;;;;;;12.65;2.17;;;5.40;99.90;;;;;;5012080;28;20029;-41
2023/01/15 13:33:43;;;;;;;8.82;2.60;;;5.40;99.90;;;;;;5008850;28;20406;-42
2023/01/15 13:36:17;;;;;;;6.38;2.60;;;5.50;99.90;;;;;;5030061;28;20033;-43
2023/01/15 13:38:48;;;;;;;9.48;3.58;;;5.70;99.90;;;;;;5032981;28;20038;-42
2023/01/15 13:42:30;;;;;;;8.20;2.88;;;5.80;99.90;;;;;;5028968;28;20045;-40
2023/01/15 13:44:25;;;;;;;12.40;3.03;;;6.10;99.90;;;;;;5028781;28;20046;-40
2023/01/15 13:47:03;;;;;;;13.40;3.03;;;6.20;99.90;;;;;;5032827;28;20410;-41
2023/01/15 13:49:35;;;;;;;10.48;3.88;;;6.30;99.90;;;;;;5014016;28;20112;-39
2023/01/15 13:52:05;;;;;;;7.50;3.35;;;6.40;99.90;;;;;;5017610;28;20041;-40
2023/01/15 13:54:35;;;;;;;8.23;2.90;;;6.50;99.90;;;;;;5013033;28;20074;-40
2023/01/15 13:57:09;;;;;;;6.78;3.25;;;6.50;99.90;;;;;;5031465;28;20092;-41
2023/01/15 13:59:43;;;;;;;12.20;3.22;;;6.50;99.90;;;;;;5010399;28;20498;-41
2023/01/15 14:02:23;;;;;;;7.43;2.78;;;6.60;99.90;;;;;;5007141;28;20113;-43
2023/01/15 14:04:49;;;;;;;9.95;3.15;;;6.70;99.90;;;;;;5023679;28;20205;-40
2023/01/15 14:07:22;;;;;;;6.65;2.75;;;6.70;99.90;;;;;;5023808;28;20029;-41
2023/01/15 14:09:49;;;;;;;6.72;2.90;;;6.60;99.90;;;;;;5005556;28;20111;-41
2023/01/15 14:12:58;;;;;;;12.55;4.28;;;6.60;99.90;;;;;;5010455;28;20408;-41
2023/01/15 14:15:25;;;;;;;8.95;4.10;;;6.50;99.90;;;;;;5008872;28;20056;-39